• Join FlightAware (Why Join?)
  • Login
  • US Flag 
08:10PM EST


 

Airport Tracker/Info


-or-


 

Live Flight TrackerFlight Track Log ✈ UAL6057 ✈ 06-May-2013 ✈ KATW - KORD

Flight Track Log - Related Links

Times and Time Zones

All times are in EDT time to prevent confusion due to time zone crossing. See the UAL6057 flight status page for this flight to view local times or setup timezone preferences in your user account.

Time Position Orientation Groundspeed Altitude Reporting Facility
EDT Latitude Longitude Course Direction KTS MPH feet Rate Location/Type
07:30PM 44.2667 -88.5667 160° South 184 212 2,500  Level KMKE
07:31PM 44.2167 -88.5333 154° Southeast 241 277 4,800 1,980 Climbing KMKE
07:31PM 44.1997 -88.5089 134° Southeast 228 262 5,700 3,120 Climbing Chicago Center
07:32PM 44.0679 -88.4256 160° South  Level FlightAware Approximate
07:32PM 44.1442 -88.4128 129° Southeast 262 302 9,600  Level Chicago Center
07:33PM 44.0067 -88.3950 160° South  Level FlightAware Approximate
07:33PM 44.1000 -88.3833 154° Southeast 288 331 11,100  Level KMKE
07:33PM 44.0669 -88.3775 173° South 292 336 11,600 1,200 Climbing Minneapolis Center
07:34PM 43.9455 -88.3644 160° South  Level FlightAware Approximate
07:34PM 43.9758 -88.3411 164° South 333 383 12,800  Level Minneapolis Center
07:35PM 43.8843 -88.3338 160° South  Level FlightAware Approximate
07:36PM 43.8167 -88.2833 165° South 364 419 13,000  Level KMKE
07:37PM 43.7167 -88.2333 160° South 363 418 13,000  Level KMKE
07:38PM 43.6817 -88.2256 171° South 365 420 13,000  Level Minneapolis Center
07:39PM 43.5672 -88.1814 164° South 364 419 13,000  Level Chicago Center
07:40PM 43.4681 -88.1428 164° South 366 421 13,000 -120 Level Chicago Center
07:42PM 43.2661 -88.1503 182° South 363 418 12,700 -600 Descending Chicago Center
07:44PM 43.0631 -88.1819 187° South 367 422 10,700 -900 Descending Chicago Center
07:45PM 42.9650 -88.1997 188° South 357 411 10,000 -360 Descending Chicago Center
07:46PM 42.8489 -88.2206 187° South 359 413 10,000 -540 Level Chicago Center
07:48PM 42.6878 -88.2233 181° South 283 326 8,500 -480 Descending Chicago Center
07:50PM 42.5167 -88.2667 191° South 280 322 8,000 -180 Descending Chicago TRACON
07:51PM 42.4606 -88.2767 187° South 276 318 8,000  Level Chicago Center
07:52PM 42.3714 -88.2936 188° South 277 319 8,000  Level Chicago Center
07:53PM 42.2944 -88.3000 184° South 273 314 8,000  Level Chicago Center
07:54PM 42.2172 -88.2944 177° South 278 320 8,000  Level Chicago Center
07:55PM 42.1386 -88.2925 179° South 282 325 8,000 -240 Level Chicago Center
07:56PM 42.0836 -88.3106 194° South 220 253 7,600 -540 Descending Chicago Center
07:57PM 42.0481 -88.3642 228° Southwest 198 228 7,000 -300 Descending Chicago Center
07:58PM 41.9889 -88.3828 193° South 202 232 7,000 -300 Level Chicago Center
07:59PM 41.9653 -88.3175 116° Southeast 201 231 6,500 -780 Descending Chicago Center
08:00PM 41.9683 -88.2500 86° East 185 213 5,500 -1,020 Descending Chicago Center
08:01PM 41.9672 -88.1844 91° East 179 206 4,400 -1,020 Descending Chicago Center
08:02PM 41.9683 -88.1222 89° East 172 198 3,500 -1,020 Descending Chicago Center
08:03PM 41.9667 -88.0833 93° East 173 199 3,000 -1,020 Descending Chicago TRACON
08:04PM 41.9667 -88.0167 90° East 163 188 2,100 -900 Descending Chicago TRACON